createdAt,value
2022-12-23T00:00:24.947Z,90980.03
2022-12-23T00:02:51.465Z,90987.97
2022-12-23T00:05:17.966Z,90973.06
2022-12-23T00:07:44.884Z,90962.69
2022-12-23T00:10:11.234Z,90969.31
2022-12-23T00:12:56.504Z,90954.88
2022-12-23T00:15:22.820Z,90966.34
2022-12-23T00:17:49.123Z,90972.66
2022-12-23T00:20:15.423Z,90979.41
2022-12-23T00:23:00.162Z,90974.25
2022-12-23T00:25:41.619Z,90975.72
2022-12-23T00:28:14.153Z,90976.06
2022-12-23T00:30:49.639Z,90968.78
2022-12-23T00:33:16.400Z,90962.78
2022-12-23T00:35:43.336Z,90955.13
2022-12-23T00:38:09.642Z,90960.56
2022-12-23T00:40:54.591Z,90965.59
2022-12-23T00:43:20.875Z,90963.06
2022-12-23T00:45:47.232Z,90965.09
2022-12-23T00:48:32.332Z,90957.13
2022-12-23T00:50:58.614Z,90954.69
2022-12-23T00:53:24.895Z,90953.28
2022-12-23T00:55:51.232Z,90946.78
2022-12-23T00:58:17.874Z,90932.72
2022-12-23T01:01:02.971Z,90928.63
2022-12-23T01:03:47.623Z,90927.78
2022-12-23T01:06:13.900Z,90934.63
2022-12-23T01:08:40.249Z,90938.31
2022-12-23T01:11:06.953Z,90937.16
2022-12-23T01:13:33.279Z,90936.38
2022-12-23T01:16:00.512Z,90926.69
2022-12-23T01:18:26.803Z,90920.09
2022-12-23T01:20:53.085Z,90926.53
2022-12-23T01:23:19.363Z,90922.72
2022-12-23T01:25:45.657Z,90919.63
2022-12-23T01:28:11.950Z,90890.41
2022-12-23T01:30:38.272Z,90907.59
2022-12-23T01:33:04.734Z,90915.22
2022-12-23T01:35:31.028Z,90937.31
2022-12-23T01:37:57.340Z,90930.44
2022-12-23T01:40:23.609Z,90916.69
2022-12-23T01:42:50.013Z,90952.22
2022-12-23T01:45:20.024Z,90953.38
2022-12-23T01:48:12.392Z,90963.59
2022-12-23T01:50:48.533Z,90978.78
2022-12-23T01:53:19.099Z,90964.06
2022-12-23T01:55:49.655Z,90953.81
2022-12-23T01:58:24.867Z,90951.75
2022-12-23T02:01:10.033Z,90948.81
2022-12-23T02:03:42.164Z,90935.03
2022-12-23T02:06:35.948Z,90938.81
2022-12-23T02:09:17.407Z,90948.56
2022-12-23T02:11:47.928Z,90960.00
2022-12-23T02:14:48.523Z,90942.56
2022-12-23T02:17:17.194Z,90958.56
2022-12-23T02:19:46.556Z,90956.41
2022-12-23T02:22:12.793Z,90962.34
2022-12-23T02:24:48.913Z,90949.41
2022-12-23T02:27:16.323Z,90947.28
2022-12-23T02:29:48.661Z,90935.81
2022-12-23T02:32:16.061Z,90948.13
2022-12-23T02:34:48.427Z,90939.94
2022-12-23T02:37:47.311Z,90948.31
2022-12-23T02:40:22.518Z,90951.06
2022-12-23T02:43:05.192Z,90956.31
2022-12-23T02:45:36.655Z,90943.25
2022-12-23T02:48:12.281Z,90929.44
2022-12-23T02:50:38.572Z,90918.97
2022-12-23T02:53:07.278Z,90915.53
2022-12-23T02:55:34.456Z,90921.56
2022-12-23T02:58:01.060Z,90930.13
2022-12-23T03:00:27.346Z,90926.97
2022-12-23T03:02:53.861Z,90935.50
2022-12-23T03:05:23.922Z,90939.84
2022-12-23T03:07:50.206Z,90952.19
2022-12-23T03:10:22.557Z,90963.78
2022-12-23T03:12:57.986Z,90954.44
2022-12-23T03:15:43.296Z,90940.47
2022-12-23T03:18:09.622Z,90928.06
2022-12-23T03:20:35.905Z,90928.00
2022-12-23T03:23:09.682Z,90915.53
2022-12-23T03:25:37.615Z,90910.31
2022-12-23T03:28:09.631Z,90901.13
2022-12-23T03:30:35.918Z,90905.34
2022-12-23T03:33:12.274Z,90922.78
2022-12-23T03:35:39.972Z,90923.47
2022-12-23T03:38:06.242Z,90920.41
2022-12-23T03:40:34.787Z,90930.00
2022-12-23T03:43:02.093Z,90940.25
2022-12-23T03:45:39.178Z,90941.09
2022-12-23T03:48:07.723Z,90935.66
2022-12-23T03:50:34.009Z,90944.09
2022-12-23T03:53:00.246Z,90937.25
2022-12-23T03:55:28.031Z,90941.47
2022-12-23T03:58:13.153Z,90940.25
2022-12-23T04:00:41.500Z,90935.66
2022-12-23T04:03:14.030Z,90928.94
2022-12-23T04:05:40.378Z,90941.25
2022-12-23T04:08:26.351Z,90936.25
2022-12-23T04:10:52.647Z,90920.75
2022-12-23T04:13:18.921Z,90928.38
2022-12-23T04:15:45.341Z,90918.44
2022-12-23T04:18:11.649Z,90917.19
2022-12-23T04:20:37.955Z,90922.75
2022-12-23T04:23:04.238Z,90920.66
2022-12-23T04:25:30.533Z,90925.25
2022-12-23T04:27:56.933Z,90927.13
2022-12-23T04:30:26.764Z,90926.59
2022-12-23T04:32:57.763Z,90924.84
2022-12-23T04:35:24.061Z,90922.31
2022-12-23T04:37:50.352Z,90923.09
2022-12-23T04:40:16.635Z,90928.00
2022-12-23T04:42:42.916Z,90920.34
2022-12-23T04:45:09.687Z,90919.78
2022-12-23T04:47:36.001Z,90914.41
2022-12-23T04:50:02.258Z,90915.16
2022-12-23T04:52:28.538Z,90915.97
2022-12-23T04:54:54.902Z,90908.38
2022-12-23T04:57:21.188Z,90902.56
2022-12-23T04:59:47.455Z,90893.59
2022-12-23T05:02:13.957Z,90900.03
2022-12-23T05:04:40.457Z,90894.72
2022-12-23T05:07:06.778Z,90890.41
2022-12-23T05:09:33.119Z,90898.31
2022-12-23T05:11:59.727Z,90894.28
2022-12-23T05:14:26.000Z,90892.44
2022-12-23T05:16:52.346Z,90911.25
2022-12-23T05:19:18.696Z,90924.09
2022-12-23T05:21:44.987Z,90917.09
2022-12-23T05:24:11.295Z,90916.03
2022-12-23T05:26:37.592Z,90928.28
2022-12-23T05:29:03.967Z,90924.59
2022-12-23T05:31:30.285Z,90923.50
2022-12-23T05:34:00.853Z,90930.72
2022-12-23T05:36:30.521Z,90921.19
2022-12-23T05:38:57.461Z,90906.88
2022-12-23T05:41:23.742Z,90902.84
2022-12-23T05:43:50.044Z,90922.00
2022-12-23T05:46:19.884Z,90918.06
2022-12-23T05:48:49.018Z,90928.41
2022-12-23T05:51:15.330Z,90930.69
2022-12-23T05:53:41.611Z,90937.16
2022-12-23T05:56:07.999Z,90936.97
2022-12-23T05:58:34.277Z,90944.03
2022-12-23T06:01:01.539Z,90938.84
2022-12-23T06:03:28.038Z,90952.06
2022-12-23T06:05:54.564Z,90959.56
2022-12-23T06:08:20.844Z,90957.38
2022-12-23T06:10:47.187Z,90956.50
2022-12-23T06:13:13.469Z,90967.72
2022-12-23T06:15:39.806Z,90968.28
2022-12-23T06:18:06.096Z,90971.75
2022-12-23T06:20:32.379Z,90971.88
2022-12-23T06:22:58.669Z,90967.03
2022-12-23T06:25:24.966Z,90961.78
2022-12-23T06:27:51.254Z,90956.91
2022-12-23T06:30:17.579Z,90965.59
2022-12-23T06:32:43.882Z,90971.63
2022-12-23T06:35:10.166Z,90984.44
2022-12-23T06:37:36.436Z,90980.00
2022-12-23T06:40:02.731Z,90998.09
2022-12-23T06:42:29.037Z,90998.19
2022-12-23T06:44:55.330Z,90995.66
2022-12-23T06:47:21.611Z,90992.97
2022-12-23T06:49:47.958Z,91006.75
2022-12-23T06:52:14.257Z,91003.09
2022-12-23T06:54:40.559Z,91015.00
2022-12-23T06:57:06.871Z,91013.88
2022-12-23T06:59:33.197Z,91006.53
2022-12-23T07:01:59.656Z,91002.47
2022-12-23T07:04:26.092Z,91004.72
2022-12-23T07:06:52.379Z,91000.16
2022-12-23T07:09:18.665Z,91002.69
2022-12-23T07:11:44.937Z,91000.59
2022-12-23T07:14:11.608Z,90996.59
2022-12-23T07:16:37.933Z,91000.50
2022-12-23T07:19:04.253Z,91005.78
2022-12-23T07:21:30.579Z,90999.94
2022-12-23T07:23:56.899Z,90999.88
2022-12-23T07:26:23.191Z,91001.13
2022-12-23T07:28:49.546Z,90990.81
2022-12-23T07:31:16.013Z,91001.56
2022-12-23T07:33:42.480Z,90989.84
2022-12-23T07:36:08.954Z,90977.94
2022-12-23T07:38:35.242Z,91008.44
2022-12-23T07:41:01.525Z,91029.94
2022-12-23T07:43:27.840Z,91037.72
2022-12-23T07:45:59.516Z,91029.56
2022-12-23T07:48:26.789Z,91023.47
2022-12-23T07:50:53.084Z,91018.69
2022-12-23T07:53:19.360Z,91030.72
2022-12-23T07:55:45.652Z,91036.53
2022-12-23T07:58:11.963Z,91043.81
2022-12-23T08:00:38.234Z,91062.84
2022-12-23T08:03:04.619Z,91059.25
2022-12-23T08:05:31.435Z,91040.16
2022-12-23T08:07:57.798Z,91020.72
2022-12-23T08:10:24.075Z,91005.06
2022-12-23T08:12:50.366Z,90988.84
2022-12-23T08:15:16.774Z,90990.53
2022-12-23T08:17:43.045Z,91002.41
2022-12-23T08:20:09.552Z,91016.91
2022-12-23T08:22:35.828Z,91033.56
2022-12-23T08:25:02.199Z,91044.34
2022-12-23T08:27:28.473Z,91065.91
2022-12-23T08:29:54.749Z,91076.22
2022-12-23T08:32:21.065Z,91084.84
2022-12-23T08:34:47.413Z,91082.00
2022-12-23T08:37:13.896Z,91060.34
2022-12-23T08:39:40.217Z,91054.66
2022-12-23T08:42:06.509Z,91031.25
2022-12-23T08:44:32.837Z,91027.53
2022-12-23T08:46:59.114Z,91036.38
2022-12-23T08:49:25.418Z,91044.03
2022-12-23T08:51:51.753Z,91054.50
2022-12-23T08:54:20.208Z,91064.00
2022-12-23T08:56:46.516Z,91062.50
2022-12-23T08:59:18.607Z,91067.75
2022-12-23T09:01:46.082Z,91065.41
2022-12-23T09:04:12.490Z,91062.47
2022-12-23T09:06:40.777Z,91067.72
2022-12-23T09:09:07.406Z,91077.28
2022-12-23T09:11:33.819Z,91058.69
2022-12-23T09:14:00.234Z,91055.16
2022-12-23T09:16:26.743Z,91065.78
2022-12-23T09:18:53.081Z,91068.31
2022-12-23T09:21:20.035Z,91080.09
2022-12-23T09:23:46.373Z,91079.22
2022-12-23T09:26:16.919Z,91075.03
2022-12-23T09:28:43.194Z,91082.06
2022-12-23T09:31:09.912Z,91085.91
2022-12-23T09:33:36.338Z,91090.06
2022-12-23T09:36:02.689Z,91082.31
2022-12-23T09:38:28.967Z,91096.88
2022-12-23T09:41:01.206Z,91091.22
2022-12-23T09:43:31.238Z,91101.38
2022-12-23T09:46:13.789Z,91092.75
2022-12-23T09:48:46.019Z,91095.00
2022-12-23T09:51:12.307Z,91106.44
2022-12-23T09:53:44.710Z,91111.28
2022-12-23T09:56:16.296Z,91106.19
2022-12-23T09:58:42.528Z,91115.66
2022-12-23T10:01:27.876Z,91120.28
2022-12-23T10:04:02.363Z,91118.91
2022-12-23T10:06:28.941Z,91129.09
2022-12-23T10:08:58.127Z,91136.53
2022-12-23T10:11:25.501Z,91125.03
2022-12-23T10:13:52.993Z,91125.13
2022-12-23T10:16:20.024Z,91133.00
2022-12-23T10:19:00.891Z,91120.13
2022-12-23T10:21:46.890Z,91121.25
2022-12-23T10:24:27.594Z,91116.81
2022-12-23T10:26:54.729Z,91115.94
2022-12-23T10:29:24.654Z,91125.50
2022-12-23T10:32:05.840Z,91121.97
2022-12-23T10:34:47.253Z,91122.50
2022-12-23T10:37:23.231Z,91109.97
2022-12-23T10:40:08.316Z,91105.00
2022-12-23T10:42:36.302Z,91096.69
2022-12-23T10:45:09.376Z,91086.53
2022-12-23T10:47:42.475Z,91072.50
2022-12-23T10:50:15.272Z,91057.94
2022-12-23T10:52:42.276Z,91048.19
2022-12-23T10:55:14.496Z,91055.13
2022-12-23T10:57:40.792Z,91070.94
2022-12-23T11:00:15.834Z,91071.06
2022-12-23T11:02:45.164Z,91074.56
2022-12-23T11:05:12.564Z,91069.47
2022-12-23T11:07:46.639Z,91063.97
2022-12-23T11:10:15.780Z,91048.41
2022-12-23T11:12:43.027Z,91037.72
2022-12-23T11:15:28.129Z,91020.13
2022-12-23T11:17:58.720Z,91034.72
2022-12-23T11:20:25.020Z,91038.09
2022-12-23T11:22:59.788Z,91045.16
2022-12-23T11:25:30.176Z,91056.84
2022-12-23T11:27:59.491Z,91053.47
2022-12-23T11:30:25.846Z,91053.75
2022-12-23T11:32:52.492Z,91054.63
2022-12-23T11:35:26.271Z,91060.47
2022-12-23T11:37:52.576Z,91042.63
2022-12-23T11:40:32.612Z,91042.09
2022-12-23T11:42:59.600Z,91048.72
2022-12-23T11:45:27.176Z,91053.00
2022-12-23T11:47:53.640Z,91051.06
2022-12-23T11:50:22.936Z,91051.75
2022-12-23T11:52:49.624Z,91055.97
2022-12-23T11:55:22.877Z,91056.84
2022-12-23T11:57:49.299Z,91053.59
2022-12-23T12:00:18.807Z,91048.38
2022-12-23T12:02:45.208Z,91045.56
2022-12-23T12:05:22.687Z,91053.44
2022-12-23T12:07:48.998Z,91057.88
2022-12-23T12:10:17.274Z,91052.41
2022-12-23T12:12:43.548Z,91042.78
2022-12-23T12:15:17.626Z,91052.03
2022-12-23T12:17:44.411Z,91037.47
2022-12-23T12:20:12.440Z,91037.41
2022-12-23T12:22:39.890Z,91034.06
2022-12-23T12:25:11.719Z,91044.75
2022-12-23T12:27:38.169Z,91039.78
2022-12-23T12:30:08.679Z,91041.84
2022-12-23T12:32:38.483Z,91029.84
2022-12-23T12:35:31.519Z,91026.97
2022-12-23T12:37:59.973Z,91024.66
2022-12-23T12:40:29.295Z,91029.06
2022-12-23T12:42:59.898Z,91028.69
2022-12-23T12:45:34.423Z,91032.19
2022-12-23T12:48:08.699Z,91030.81
2022-12-23T12:50:44.170Z,91042.75
2022-12-23T12:53:12.021Z,91039.50
2022-12-23T12:55:40.039Z,91053.75
2022-12-23T12:58:08.575Z,91056.66
2022-12-23T13:00:38.656Z,91052.91
2022-12-23T13:03:23.779Z,91057.66
2022-12-23T13:06:08.796Z,91053.13
2022-12-23T13:08:39.399Z,91049.06
2022-12-23T13:11:06.144Z,91046.06
2022-12-23T13:13:35.564Z,91048.47
2022-12-23T13:16:04.059Z,91045.91
2022-12-23T13:18:33.365Z,91045.81
2022-12-23T13:21:08.091Z,91050.34
2022-12-23T13:23:44.781Z,91053.75
2022-12-23T13:26:14.227Z,91059.59
2022-12-23T13:28:45.916Z,91072.34
2022-12-23T13:31:21.466Z,91075.44
2022-12-23T13:33:49.474Z,91084.31
2022-12-23T13:36:34.083Z,91086.91
2022-12-23T13:39:13.595Z,91080.84
2022-12-23T13:41:47.015Z,91065.69
2022-12-23T13:44:14.973Z,91070.03
2022-12-23T13:46:59.632Z,91063.22
2022-12-23T13:49:42.122Z,91064.88
2022-12-23T13:52:12.272Z,91051.88
2022-12-23T13:54:53.833Z,91049.47
2022-12-23T13:57:31.774Z,91059.13
2022-12-23T14:00:04.991Z,91052.34
2022-12-23T14:02:35.541Z,91055.09
2022-12-23T14:05:01.912Z,91046.34
2022-12-23T14:07:28.211Z,91050.84
2022-12-23T14:09:55.115Z,91048.56
2022-12-23T14:12:21.421Z,91059.13
2022-12-23T14:15:06.315Z,91058.59
2022-12-23T14:17:39.093Z,91056.81
2022-12-23T14:20:24.062Z,91051.53
2022-12-23T14:22:56.475Z,91050.00
2022-12-23T14:25:29.359Z,91058.34
2022-12-23T14:27:58.452Z,91056.09
2022-12-23T14:30:33.085Z,91049.34
2022-12-23T14:33:03.233Z,91057.75
2022-12-23T14:35:38.487Z,91052.50
2022-12-23T14:38:08.399Z,91054.59
2022-12-23T14:40:37.699Z,91052.13
2022-12-23T14:43:22.723Z,91046.84
2022-12-23T14:45:49.606Z,91041.78
2022-12-23T14:48:34.341Z,91047.16
2022-12-23T14:51:01.436Z,91056.09
2022-12-23T14:53:28.256Z,91045.81
2022-12-23T14:56:09.793Z,91057.50
2022-12-23T14:58:46.610Z,91066.03
2022-12-23T15:01:33.263Z,91068.78
2022-12-23T15:04:01.774Z,91070.16
2022-12-23T15:06:45.096Z,91069.31
2022-12-23T15:09:21.443Z,91066.91
2022-12-23T15:11:47.776Z,91052.91
2022-12-23T15:14:16.885Z,91048.09
2022-12-23T15:16:45.026Z,91059.03
2022-12-23T15:19:17.526Z,91066.50
2022-12-23T15:21:46.899Z,91063.09
2022-12-23T15:24:19.943Z,91050.63
2022-12-23T15:27:03.629Z,91045.50
2022-12-23T15:29:36.440Z,91043.03
2022-12-23T15:32:03.165Z,91053.69
2022-12-23T15:34:30.480Z,91060.69
2022-12-23T15:36:56.875Z,91062.16
2022-12-23T15:39:32.985Z,91049.88
2022-12-23T15:41:59.414Z,91056.09
2022-12-23T15:44:26.673Z,91060.03
2022-12-23T15:46:53.103Z,91062.38
2022-12-23T15:49:19.769Z,91064.03
2022-12-23T15:52:12.459Z,91055.63
2022-12-23T15:54:40.471Z,91049.81
2022-12-23T15:57:06.756Z,91048.56
2022-12-23T15:59:33.725Z,91046.66
2022-12-23T16:02:32.145Z,91033.84
2022-12-23T16:04:56.373Z,91027.16
2022-12-23T16:07:23.523Z,91031.34
2022-12-23T16:09:49.798Z,91044.53
2022-12-23T16:12:16.004Z,91045.66
2022-12-23T16:14:42.349Z,91050.47
2022-12-23T16:17:08.568Z,91058.41
2022-12-23T16:19:40.568Z,91059.44
2022-12-23T16:22:10.733Z,91069.78
2022-12-23T16:24:36.995Z,91083.84
2022-12-23T16:27:03.291Z,91078.03
2022-12-23T16:29:33.326Z,91072.97
2022-12-23T16:32:02.023Z,91087.50
2022-12-23T16:34:30.163Z,91091.56
2022-12-23T16:36:56.476Z,91089.69
2022-12-23T16:39:22.796Z,91093.59
2022-12-23T16:41:49.256Z,91097.25
2022-12-23T16:44:15.691Z,91089.47
2022-12-23T16:46:45.458Z,91084.19
2022-12-23T16:49:18.730Z,91085.13
2022-12-23T16:51:45.023Z,91082.84
2022-12-23T16:54:14.867Z,91098.34
2022-12-23T16:56:41.415Z,91110.47
2022-12-23T16:59:07.861Z,91119.41
2022-12-23T17:01:35.351Z,91126.28
2022-12-23T17:04:01.624Z,91115.22
2022-12-23T17:06:27.927Z,91100.00
2022-12-23T17:08:54.184Z,91084.19
2022-12-23T17:11:24.412Z,91067.91
2022-12-23T17:13:50.692Z,91065.56
2022-12-23T17:16:19.894Z,91057.97
2022-12-23T17:18:46.948Z,91056.34
2022-12-23T17:21:21.597Z,91039.53
2022-12-23T17:23:47.895Z,91032.31
2022-12-23T17:26:14.730Z,91043.66
2022-12-23T17:28:41.009Z,91050.88
2022-12-23T17:31:13.988Z,91059.91
2022-12-23T17:33:41.803Z,91061.91
2022-12-23T17:36:08.960Z,91067.41
2022-12-23T17:38:35.275Z,91057.31
2022-12-23T17:41:01.582Z,91049.53
2022-12-23T17:43:27.951Z,91057.34
2022-12-23T17:45:54.291Z,91055.22
2022-12-23T17:48:24.141Z,91061.63
2022-12-23T17:50:52.906Z,91060.81
2022-12-23T17:53:19.288Z,91061.41
2022-12-23T17:55:45.592Z,91064.00
2022-12-23T17:58:11.975Z,91067.31
2022-12-23T18:00:38.282Z,91074.38
2022-12-23T18:03:05.382Z,91074.44
2022-12-23T18:05:32.597Z,91074.03
2022-12-23T18:07:59.396Z,91066.69
2022-12-23T18:10:26.845Z,91073.13
2022-12-23T18:12:53.787Z,91072.03
2022-12-23T18:15:24.141Z,91066.34
2022-12-23T18:17:50.538Z,91072.34
2022-12-23T18:20:20.700Z,91068.84
2022-12-23T18:22:47.421Z,91059.28
2022-12-23T18:25:14.775Z,91048.47
2022-12-23T18:27:41.159Z,91050.56
2022-12-23T18:30:07.692Z,91045.91
2022-12-23T18:32:33.970Z,91053.28
2022-12-23T18:35:00.296Z,91052.34
2022-12-23T18:37:26.601Z,91054.75
2022-12-23T18:39:52.898Z,91065.97
2022-12-23T18:42:19.474Z,91066.38
2022-12-23T18:44:46.419Z,91070.25
2022-12-23T18:47:12.747Z,91068.84
2022-12-23T18:49:39.032Z,91062.13
2022-12-23T18:52:07.276Z,91074.28
2022-12-23T18:54:33.778Z,91075.84
2022-12-23T18:57:00.812Z,91072.03
2022-12-23T18:59:29.960Z,91078.81
2022-12-23T19:01:56.703Z,91087.03
2022-12-23T19:04:23.060Z,91087.03
2022-12-23T19:06:49.364Z,91088.06
2022-12-23T19:09:16.548Z,91102.03
2022-12-23T19:11:42.897Z,91114.03
2022-12-23T19:14:09.879Z,91132.84
2022-12-23T19:16:36.257Z,91139.47
2022-12-23T19:19:02.554Z,91143.88
2022-12-23T19:21:28.913Z,91145.81
2022-12-23T19:23:55.208Z,91150.16
2022-12-23T19:26:21.483Z,91161.63
2022-12-23T19:28:48.519Z,91164.75
2022-12-23T19:31:15.141Z,91162.47
2022-12-23T19:33:42.123Z,91156.09
2022-12-23T19:36:09.711Z,91155.16
2022-12-23T19:38:36.042Z,91158.56
2022-12-23T19:41:02.314Z,91145.50
2022-12-23T19:43:28.591Z,91128.78
2022-12-23T19:45:58.701Z,91121.47
2022-12-23T19:48:25.055Z,91121.13
2022-12-23T19:50:58.150Z,91130.22
2022-12-23T19:53:24.620Z,91142.13
2022-12-23T19:55:59.179Z,91141.44
2022-12-23T19:58:25.747Z,91152.16
2022-12-23T20:00:52.060Z,91166.31
2022-12-23T20:03:19.346Z,91172.81
2022-12-23T20:05:49.621Z,91188.72
2022-12-23T20:08:16.510Z,91189.44
2022-12-23T20:10:43.196Z,91210.69
2022-12-23T20:13:09.540Z,91217.19
2022-12-23T20:15:35.872Z,91221.03
2022-12-23T20:18:02.227Z,91224.28
2022-12-23T20:20:28.540Z,91232.34
2022-12-23T20:22:54.814Z,91225.75
2022-12-23T20:25:21.089Z,91240.25
2022-12-23T20:27:47.355Z,91209.88
2022-12-23T20:30:13.644Z,91198.22
2022-12-23T20:32:39.942Z,91194.84
2022-12-23T20:35:06.432Z,91168.16
2022-12-23T20:37:32.735Z,91139.97
2022-12-23T20:39:59.032Z,91153.28
2022-12-23T20:42:27.481Z,91149.63
2022-12-23T20:44:53.973Z,91155.91
2022-12-23T20:47:20.291Z,91143.13
2022-12-23T20:49:46.573Z,91137.56
2022-12-23T20:52:12.843Z,91141.28
2022-12-23T20:54:39.141Z,91158.19
2022-12-23T20:57:05.448Z,91146.97
2022-12-23T20:59:31.747Z,91150.31
2022-12-23T21:01:59.095Z,91157.84
2022-12-23T21:04:25.673Z,91144.34
2022-12-23T21:06:51.957Z,91126.94
2022-12-23T21:09:18.283Z,91119.75
2022-12-23T21:11:45.032Z,91127.53
2022-12-23T21:14:11.365Z,91131.13
2022-12-23T21:16:37.807Z,91131.00
2022-12-23T21:19:04.496Z,91130.53
2022-12-23T21:21:31.728Z,91125.25
2022-12-23T21:23:59.235Z,91116.47
2022-12-23T21:26:26.288Z,91116.22
2022-12-23T21:28:53.032Z,91122.84
2022-12-23T21:31:20.132Z,91122.69
2022-12-23T21:33:46.874Z,91106.59
2022-12-23T21:36:19.828Z,91104.88
2022-12-23T21:38:46.838Z,91103.66
2022-12-23T21:41:14.309Z,91102.38
2022-12-23T21:43:40.601Z,91109.84
2022-12-23T21:46:07.974Z,91095.25
2022-12-23T21:48:34.740Z,91098.81
2022-12-23T21:51:05.057Z,91086.75
2022-12-23T21:53:31.929Z,91104.31
2022-12-23T21:56:04.500Z,91094.09
2022-12-23T21:58:30.909Z,91091.03
2022-12-23T22:00:57.263Z,91090.88
2022-12-23T22:03:23.660Z,91095.72
2022-12-23T22:05:49.957Z,91106.97
2022-12-23T22:08:16.244Z,91115.91
2022-12-23T22:10:42.698Z,91113.91
2022-12-23T22:13:08.978Z,91135.72
2022-12-23T22:15:39.510Z,91138.66
2022-12-23T22:18:05.803Z,91153.63
2022-12-23T22:20:32.080Z,91146.06
2022-12-23T22:22:58.368Z,91141.28
2022-12-23T22:25:24.727Z,91162.09
2022-12-23T22:27:51.061Z,91169.19
2022-12-23T22:30:17.339Z,91150.38
2022-12-23T22:32:43.651Z,91139.53
2022-12-23T22:35:10.027Z,91130.38
2022-12-23T22:37:36.339Z,91124.06
2022-12-23T22:40:02.885Z,91118.63
2022-12-23T22:42:29.183Z,91138.22
2022-12-23T22:44:55.478Z,91101.53
2022-12-23T22:47:21.831Z,91094.78
2022-12-23T22:49:48.111Z,91089.25
2022-12-23T22:52:14.979Z,91080.31
2022-12-23T22:54:41.299Z,91083.84
2022-12-23T22:57:07.636Z,91089.06
2022-12-23T22:59:33.952Z,91094.94
2022-12-23T23:02:00.324Z,91103.38
2022-12-23T23:04:26.687Z,91098.63
2022-12-23T23:06:53.010Z,91098.09
2022-12-23T23:09:19.529Z,91104.72
2022-12-23T23:11:45.899Z,91118.41
2022-12-23T23:14:12.220Z,91126.69
2022-12-23T23:16:38.673Z,91120.19
2022-12-23T23:19:05.027Z,91126.28
2022-12-23T23:21:31.478Z,91122.53
2022-12-23T23:23:57.781Z,91122.69
2022-12-23T23:26:27.395Z,91142.75
2022-12-23T23:28:54.285Z,91156.38
2022-12-23T23:34:07.068Z,91162.31
2022-12-23T23:36:33.406Z,91174.44
2022-12-23T23:38:59.784Z,91180.38
2022-12-23T23:41:26.108Z,91157.16
2022-12-23T23:43:52.384Z,91159.03
2022-12-23T23:46:18.792Z,91142.00
2022-12-23T23:48:45.191Z,91138.81
2022-12-23T23:51:12.439Z,91148.94
2022-12-23T23:53:38.779Z,91147.53
2022-12-23T23:56:05.462Z,91142.69
2022-12-23T23:58:31.884Z,91148.88
